GABS/BKO METAR and TAF weather

Enter ICAO airport designator
Station Type Date Time Source
GABS METAR 2018/01/16 09:00 UTC NOAA

GABS 160900Z 05006KT 6000 NSC 24/M04 Q1015 NOSIG


Station Type Date Time Source
GABS Decoded METAR 2018/01/16 09:00 UTC NOAA

Bamako / Senou, Mali (GABS) 12-32N 007-57W 381M
Jan 16, 2018 - 04:00 AM EST / 2018.01.16 0900 UTC
Wind: from the NE (050 degrees) at 7 MPH (6 KT):0
Visibility: 3 mile(s):0
Temperature: 75 F (24 C)
Dew Point: 24 F (-4 C)
Relative Humidity: 15%
Pressure (altimeter): 29.97 in. Hg (1015 hPa)
ob: GABS 160900Z 05006KT 6000 NSC 24/M04 Q1015 NOSIG
cycle: 9

Station Type Date Time Source
GABS TAF 2018/01/16 06:30 UTC NOAA

TAF TAF GABS 160500Z 1606/1712 VRB05KT 8000 NSC PROB40
TEMPO 1606/1610 4500 HZ


Example: see airport list